createdAt,value
2022-09-25T00:02:14.187Z,17.83
2022-09-25T00:04:45.505Z,15.83
2022-09-25T00:07:16.754Z,17.00
2022-09-25T00:09:48.021Z,16.87
2022-09-25T00:12:19.298Z,19.57
2022-09-25T00:14:51.615Z,18.03
2022-09-25T00:17:22.954Z,18.73
2022-09-25T00:19:54.332Z,18.57
2022-09-25T00:22:26.725Z,19.93
2022-09-25T00:24:57.987Z,17.87
2022-09-25T00:27:29.403Z,19.33
2022-09-25T00:30:00.820Z,20.13
2022-09-25T00:32:32.462Z,19.70
2022-09-25T00:35:04.838Z,19.27
2022-09-25T00:37:36.850Z,22.30
2022-09-25T00:40:08.595Z,19.17
2022-09-25T00:42:41.189Z,18.47
2022-09-25T00:45:22.051Z,20.07
2022-09-25T00:48:00.741Z,17.50
2022-09-25T00:50:41.453Z,18.57
2022-09-25T00:53:18.881Z,18.60
2022-09-25T00:55:50.857Z,19.10
2022-09-25T00:58:24.614Z,19.73
2022-09-25T01:00:56.054Z,19.73
2022-09-25T01:03:28.278Z,17.90
2022-09-25T01:06:00.796Z,17.93
2022-09-25T01:08:34.111Z,15.07
2022-09-25T01:11:05.439Z,14.57
2022-09-25T01:13:39.064Z,15.70
2022-09-25T01:16:42.908Z,16.17
2022-09-25T01:19:32.173Z,16.50
2022-09-25T01:22:32.442Z,17.60
2022-09-25T01:25:35.002Z,15.83
2022-09-25T01:28:37.498Z,16.57
2022-09-25T01:31:17.786Z,16.10
2022-09-25T01:33:58.565Z,15.90
2022-09-25T01:36:38.473Z,16.30
2022-09-25T01:39:20.413Z,17.43
2022-09-25T01:42:00.729Z,16.33
2022-09-25T01:44:34.630Z,15.93
2022-09-25T01:47:10.669Z,15.50
2022-09-25T01:49:53.186Z,14.57
2022-09-25T01:52:32.867Z,13.97
2022-09-25T01:55:12.376Z,13.30
2022-09-25T01:57:49.196Z,14.27
2022-09-25T02:00:22.867Z,13.63
2022-09-25T02:03:06.270Z,15.57
2022-09-25T02:05:45.202Z,15.13
2022-09-25T02:08:49.667Z,14.87
2022-09-25T02:11:21.612Z,14.90
2022-09-25T02:14:02.529Z,14.67
2022-09-25T02:16:44.663Z,16.20
2022-09-25T02:19:36.052Z,15.53
2022-09-25T02:22:20.604Z,15.30
2022-09-25T02:25:00.477Z,14.80
2022-09-25T02:27:32.618Z,15.80
2022-09-25T02:30:04.583Z,16.93
2022-09-25T02:32:35.835Z,15.80
2022-09-25T02:35:07.348Z,17.20
2022-09-25T02:37:38.665Z,16.03
2022-09-25T02:40:11.513Z,18.00
2022-09-25T02:42:50.345Z,16.40
2022-09-25T02:45:52.040Z,17.00
2022-09-25T02:48:41.148Z,15.00
2022-09-25T02:51:24.903Z,17.30
2022-09-25T02:54:08.435Z,16.80
2022-09-25T02:57:04.278Z,18.13
2022-09-25T02:59:41.535Z,16.17
2022-09-25T03:02:15.621Z,18.73
2022-09-25T03:04:48.646Z,18.07
2022-09-25T03:07:20.213Z,18.13
2022-09-25T03:09:54.921Z,19.17
2022-09-25T03:12:26.175Z,17.70
2022-09-25T03:14:57.442Z,20.43
2022-09-25T03:17:28.757Z,20.03
2022-09-25T03:20:00.134Z,20.20
2022-09-25T03:22:31.449Z,19.60
2022-09-25T03:25:04.521Z,21.17
2022-09-25T03:27:36.340Z,21.47
2022-09-25T03:30:08.336Z,22.17
2022-09-25T03:32:42.029Z,23.03
2022-09-25T03:35:13.363Z,22.00
2022-09-25T03:37:44.617Z,22.93
2022-09-25T03:40:16.347Z,21.50
2022-09-25T03:42:48.342Z,21.00
2022-09-25T03:45:19.828Z,23.67
2022-09-25T03:47:51.138Z,23.30
2022-09-25T03:50:22.414Z,23.20
2022-09-25T03:52:53.673Z,23.17
2022-09-25T03:55:25.990Z,23.30
2022-09-25T03:57:57.417Z,23.47
2022-09-25T04:00:28.729Z,22.17
2022-09-25T04:03:00.157Z,22.43
2022-09-25T04:05:31.418Z,23.50
2022-09-25T04:08:02.707Z,20.40
2022-09-25T04:10:38.750Z,20.90
2022-09-25T04:13:13.315Z,18.80
2022-09-25T04:15:44.582Z,19.33
2022-09-25T04:18:15.876Z,19.07
2022-09-25T04:20:47.281Z,18.27
2022-09-25T04:23:18.557Z,20.47
2022-09-25T04:25:49.961Z,19.77
2022-09-25T04:28:22.388Z,20.07
2022-09-25T04:30:53.785Z,19.63
2022-09-25T04:33:43.913Z,20.53
2022-09-25T04:36:18.841Z,19.17
2022-09-25T04:38:50.115Z,21.17
2022-09-25T04:41:21.451Z,20.17
2022-09-25T04:43:52.695Z,18.80
2022-09-25T04:46:24.077Z,20.40
2022-09-25T04:48:55.347Z,19.83
2022-09-25T04:51:26.602Z,22.00
2022-09-25T04:53:57.937Z,21.03
2022-09-25T04:56:29.368Z,20.27
2022-09-25T04:59:00.643Z,20.03
2022-09-25T05:01:31.915Z,20.80
2022-09-25T05:04:08.329Z,18.33
2022-09-25T05:06:40.085Z,19.03
2022-09-25T05:09:11.381Z,19.47
2022-09-25T05:11:42.638Z,19.47
2022-09-25T05:14:13.913Z,18.90
2022-09-25T05:16:48.902Z,12.00
2022-09-25T05:19:20.157Z,9.27
2022-09-25T05:21:52.945Z,7.47
2022-09-25T05:24:24.186Z,6.30
2022-09-25T05:26:55.486Z,5.10
2022-09-25T05:29:26.748Z,5.10
2022-09-25T05:31:58.012Z,4.47
2022-09-25T05:34:29.254Z,4.00
2022-09-25T05:37:00.609Z,4.50
2022-09-25T05:39:31.841Z,4.73
2022-09-25T05:42:03.298Z,4.30
2022-09-25T05:44:34.661Z,3.90
2022-09-25T05:47:07.642Z,3.80
2022-09-25T05:49:38.874Z,3.67
2022-09-25T05:52:10.130Z,3.70
2022-09-25T05:54:41.896Z,3.73
2022-09-25T05:57:13.162Z,3.60
2022-09-25T05:59:44.476Z,3.50
2022-09-25T06:02:16.817Z,3.03
2022-09-25T06:04:48.197Z,3.77
2022-09-25T06:07:19.862Z,3.87
2022-09-25T06:09:51.149Z,4.30
2022-09-25T06:12:24.686Z,3.90
2022-09-25T06:14:55.997Z,4.37
2022-09-25T06:17:27.230Z,3.97
2022-09-25T06:19:58.472Z,3.70
2022-09-25T06:22:30.108Z,5.10
2022-09-25T06:25:01.375Z,4.97
2022-09-25T06:27:33.709Z,4.50
2022-09-25T06:30:05.877Z,4.77
2022-09-25T06:32:38.041Z,4.47
2022-09-25T06:35:09.429Z,3.90
2022-09-25T06:37:40.660Z,4.03
2022-09-25T06:40:11.957Z,3.70
2022-09-25T06:42:44.979Z,3.90
2022-09-25T06:45:16.306Z,3.70
2022-09-25T06:47:47.541Z,4.33
2022-09-25T06:50:18.821Z,3.70
2022-09-25T06:52:50.061Z,3.23
2022-09-25T06:55:21.322Z,3.33
2022-09-25T06:57:52.835Z,3.13
2022-09-25T07:00:24.227Z,2.80
2022-09-25T07:03:16.232Z,2.30
2022-09-25T07:05:48.313Z,2.73
2022-09-25T07:08:21.089Z,2.57
2022-09-25T07:10:57.569Z,2.87
2022-09-25T07:13:31.472Z,2.43
2022-09-25T07:16:08.027Z,3.30
2022-09-25T07:18:39.723Z,2.90
2022-09-25T07:21:12.285Z,2.87
2022-09-25T07:23:44.458Z,3.03
2022-09-25T07:26:28.324Z,2.97
2022-09-25T07:29:06.366Z,2.70
2022-09-25T07:31:38.053Z,2.57
2022-09-25T07:34:10.004Z,2.80
2022-09-25T07:36:42.721Z,2.60
2022-09-25T07:39:18.338Z,2.83
2022-09-25T07:41:50.309Z,2.60
2022-09-25T07:44:29.045Z,2.97
2022-09-25T07:47:02.466Z,3.03
2022-09-25T07:49:34.915Z,3.17
2022-09-25T07:52:06.523Z,3.27
2022-09-25T07:54:38.190Z,3.90
2022-09-25T07:57:09.441Z,3.27
2022-09-25T07:59:40.726Z,4.00
2022-09-25T08:02:12.321Z,3.47
2022-09-25T08:04:43.621Z,4.13
2022-09-25T08:07:14.945Z,3.73
2022-09-25T08:09:46.365Z,4.50
2022-09-25T08:12:18.278Z,4.87
2022-09-25T08:14:50.378Z,5.47
2022-09-25T08:17:22.407Z,5.07
2022-09-25T08:19:53.653Z,5.73
2022-09-25T08:22:24.905Z,5.50
2022-09-25T08:24:56.174Z,5.27
2022-09-25T08:27:27.702Z,5.27
2022-09-25T08:29:59.081Z,5.43
2022-09-25T08:32:33.589Z,5.53
2022-09-25T08:35:05.362Z,6.77
2022-09-25T08:37:41.509Z,6.97
2022-09-25T08:42:52.288Z,6.57
2022-09-25T08:45:47.303Z,7.80
2022-09-25T08:48:41.267Z,8.67
2022-09-25T08:51:13.094Z,7.57
2022-09-25T08:53:46.141Z,7.90
2022-09-25T08:56:17.956Z,9.00
2022-09-25T08:59:11.969Z,8.87
2022-09-25T09:01:54.711Z,9.33
2022-09-25T09:04:38.510Z,9.47
2022-09-25T09:07:32.677Z,8.87
2022-09-25T09:10:28.225Z,8.63
2022-09-25T09:13:06.352Z,8.90
2022-09-25T09:15:46.413Z,8.43
2022-09-25T09:18:26.627Z,8.67
2022-09-25T09:21:09.062Z,8.60
2022-09-25T09:23:59.357Z,7.33
2022-09-25T09:26:36.329Z,7.40
2022-09-25T09:29:39.425Z,6.57
2022-09-25T09:32:23.954Z,6.67
2022-09-25T09:35:06.163Z,6.47
2022-09-25T09:37:50.315Z,6.60
2022-09-25T09:40:47.062Z,5.97
2022-09-25T09:43:45.238Z,5.88
2022-09-25T09:46:32.857Z,5.97
2022-09-25T09:49:18.383Z,6.13
2022-09-25T09:52:03.730Z,6.73
2022-09-25T09:54:47.964Z,6.77
2022-09-25T09:57:22.526Z,6.80
2022-09-25T10:00:04.370Z,6.67
2022-09-25T10:02:41.011Z,7.73
2022-09-25T10:05:51.976Z,7.22
2022-09-25T10:08:23.588Z,7.27
2022-09-25T10:10:59.163Z,7.63
2022-09-25T10:13:34.265Z,7.75
2022-09-25T10:16:11.545Z,7.40
2022-09-25T10:18:49.198Z,8.23
2022-09-25T10:21:24.229Z,7.67
2022-09-25T10:23:58.438Z,8.10
2022-09-25T10:26:33.216Z,7.77
2022-09-25T10:29:25.518Z,7.20
2022-09-25T10:32:03.723Z,6.93
2022-09-25T10:34:35.578Z,7.67
2022-09-25T10:37:19.650Z,7.73
2022-09-25T10:40:22.666Z,7.63
2022-09-25T10:43:24.084Z,7.27
2022-09-25T10:46:15.484Z,7.40
2022-09-25T10:49:05.698Z,7.30
2022-09-25T10:51:36.989Z,7.53
2022-09-25T10:54:13.675Z,8.93
2022-09-25T10:56:45.277Z,8.00
2022-09-25T10:59:21.019Z,6.97
2022-09-25T11:01:55.777Z,6.72
2022-09-25T11:04:30.705Z,7.20
2022-09-25T11:07:07.522Z,6.80
2022-09-25T11:09:44.841Z,7.87
2022-09-25T11:12:23.618Z,7.27
2022-09-25T11:14:59.025Z,6.63
2022-09-25T11:17:41.897Z,6.03
2022-09-25T11:20:16.460Z,7.10
2022-09-25T11:23:23.802Z,6.40
2022-09-25T11:26:15.685Z,6.05
2022-09-25T11:29:01.176Z,5.87
2022-09-25T11:31:39.398Z,4.20
2022-09-25T11:34:24.902Z,4.50
2022-09-25T11:37:15.102Z,6.67
2022-09-25T11:40:23.258Z,5.03
2022-09-25T11:43:11.150Z,4.80
2022-09-25T11:45:51.868Z,5.80
2022-09-25T11:48:50.059Z,5.03
2022-09-25T11:51:28.988Z,3.80
2022-09-25T11:54:32.604Z,4.13
2022-09-25T11:57:32.002Z,4.40
2022-09-25T12:00:21.209Z,4.27
2022-09-25T12:03:06.285Z,4.07
2022-09-25T12:06:05.580Z,3.77
2022-09-25T12:08:50.950Z,3.90
2022-09-25T12:11:30.394Z,3.83
2022-09-25T12:14:20.213Z,3.40
2022-09-25T12:17:11.467Z,3.63
2022-09-25T12:20:07.387Z,3.53
2022-09-25T12:23:00.965Z,3.73
2022-09-25T12:26:06.535Z,3.40
2022-09-25T12:29:15.699Z,4.57
2022-09-25T12:32:05.853Z,5.60
2022-09-25T12:35:08.774Z,4.37
2022-09-25T12:37:53.045Z,6.77
2022-09-25T12:40:32.269Z,4.60
2022-09-25T12:43:18.167Z,4.23
2022-09-25T12:46:24.700Z,5.03
2022-09-25T12:49:11.535Z,3.57
2022-09-25T12:51:50.719Z,4.20
2022-09-25T12:54:59.721Z,3.67
2022-09-25T12:57:41.553Z,3.50
2022-09-25T13:00:21.145Z,3.30
2022-09-25T13:03:00.830Z,3.33
2022-09-25T13:05:44.090Z,2.33
2022-09-25T13:08:23.416Z,2.53
2022-09-25T13:10:59.845Z,2.77
2022-09-25T13:13:39.913Z,2.50
2022-09-25T13:16:14.732Z,2.60
2022-09-25T13:19:07.444Z,1.97
2022-09-25T13:21:42.864Z,2.30
2022-09-25T13:24:19.612Z,1.50
2022-09-25T13:26:55.048Z,2.03
2022-09-25T13:29:30.528Z,1.52
2022-09-25T13:32:13.741Z,1.20
2022-09-25T13:34:45.934Z,1.63
2022-09-25T13:37:17.516Z,1.33
2022-09-25T13:40:08.864Z,1.53
2022-09-25T13:42:46.361Z,1.10
2022-09-25T13:45:37.293Z,1.40
2022-09-25T13:48:12.362Z,1.40
2022-09-25T13:50:47.704Z,1.20
2022-09-25T13:53:26.581Z,0.93
2022-09-25T13:55:57.893Z,1.00
2022-09-25T13:58:59.153Z,1.20
2022-09-25T14:01:45.084Z,1.23
2022-09-25T14:04:17.346Z,0.77
2022-09-25T14:06:53.957Z,1.20
2022-09-25T14:09:29.778Z,1.63
2022-09-25T14:12:22.528Z,1.33
2022-09-25T14:15:07.437Z,2.03
2022-09-25T14:17:43.535Z,1.30
2022-09-25T14:23:01.124Z,1.00
2022-09-25T14:25:38.192Z,0.90
2022-09-25T14:28:30.337Z,1.00
2022-09-25T14:31:15.391Z,1.00
2022-09-25T14:34:12.339Z,1.70
2022-09-25T14:37:23.047Z,0.90
2022-09-25T14:40:20.091Z,1.23
2022-09-25T14:43:10.465Z,0.97
2022-09-25T14:46:07.633Z,1.50
2022-09-25T14:48:52.370Z,1.17
2022-09-25T14:51:40.724Z,1.40
2022-09-25T14:54:17.706Z,1.10
2022-09-25T14:56:54.716Z,0.80
2022-09-25T14:59:39.516Z,0.97
2022-09-25T15:02:18.615Z,0.90
2022-09-25T15:04:51.005Z,1.50
2022-09-25T15:07:27.740Z,0.73
2022-09-25T15:10:01.011Z,0.80
2022-09-25T15:12:36.439Z,2.33
2022-09-25T15:15:12.583Z,0.75
2022-09-25T15:20:28.595Z,1.57
2022-09-25T15:23:10.335Z,2.33
2022-09-25T15:25:45.810Z,1.27
2022-09-25T15:28:20.167Z,1.98
2022-09-25T15:31:01.395Z,2.27
2022-09-25T15:33:36.989Z,1.40
2022-09-25T15:36:20.126Z,1.52
2022-09-25T15:39:00.005Z,1.53
2022-09-25T15:41:31.281Z,1.03
2022-09-25T15:44:24.146Z,1.87
2022-09-25T15:47:01.885Z,1.23
2022-09-25T15:49:38.397Z,0.87
2022-09-25T15:52:29.482Z,0.90
2022-09-25T15:55:05.605Z,0.83
2022-09-25T16:00:36.712Z,1.20
2022-09-25T16:03:38.399Z,1.00
2022-09-25T16:06:15.523Z,1.23
2022-09-25T16:08:47.825Z,1.33
2022-09-25T16:11:26.599Z,0.93
2022-09-25T16:14:29.272Z,1.20
2022-09-25T16:17:00.685Z,1.50
2022-09-25T16:19:34.202Z,1.40
2022-09-25T16:22:20.126Z,1.30
2022-09-25T16:24:52.903Z,1.55
2022-09-25T16:27:32.945Z,0.70
2022-09-25T16:30:05.020Z,1.10
2022-09-25T16:32:36.302Z,0.80
2022-09-25T16:35:21.332Z,1.10
2022-09-25T16:37:53.346Z,0.83
2022-09-25T16:40:33.689Z,0.80
2022-09-25T16:43:25.498Z,1.20
2022-09-25T16:46:02.038Z,1.57
2022-09-25T16:48:39.124Z,1.10
2022-09-25T16:51:21.953Z,1.17
2022-09-25T16:53:55.025Z,1.30
2022-09-25T16:56:31.403Z,1.33
2022-09-25T16:59:05.127Z,1.20
2022-09-25T17:01:38.349Z,0.80
2022-09-25T17:04:12.026Z,1.30
2022-09-25T17:06:45.740Z,1.43
2022-09-25T17:09:17.837Z,2.37
2022-09-25T17:11:50.155Z,2.70
2022-09-25T17:14:26.137Z,1.57
2022-09-25T17:16:58.869Z,2.03
2022-09-25T17:19:30.250Z,1.77
2022-09-25T17:22:01.645Z,1.60
2022-09-25T17:24:32.969Z,1.50
2022-09-25T17:27:13.434Z,1.13
2022-09-25T17:29:46.580Z,1.23
2022-09-25T17:32:17.878Z,2.17
2022-09-25T17:34:50.161Z,1.47
2022-09-25T17:37:21.506Z,2.20
2022-09-25T17:39:52.894Z,1.20
2022-09-25T17:42:26.582Z,1.17
2022-09-25T17:44:58.009Z,1.20
2022-09-25T17:47:31.623Z,0.93
2022-09-25T17:50:03.093Z,1.13
2022-09-25T17:52:34.361Z,1.60
2022-09-25T17:55:16.678Z,1.30
2022-09-25T17:57:48.622Z,1.70
2022-09-25T18:00:20.415Z,2.03
2022-09-25T18:02:51.785Z,1.37
2022-09-25T18:05:24.102Z,1.13
2022-09-25T18:07:55.945Z,1.30
2022-09-25T18:10:30.409Z,1.97
2022-09-25T18:13:02.345Z,1.73
2022-09-25T18:15:36.658Z,2.30
2022-09-25T18:18:09.066Z,1.20
2022-09-25T18:20:58.840Z,1.70
2022-09-25T18:23:33.445Z,1.67
2022-09-25T18:26:08.130Z,2.87
2022-09-25T18:28:39.406Z,2.90
2022-09-25T18:31:11.164Z,2.37
2022-09-25T18:33:47.183Z,2.23
2022-09-25T18:38:50.070Z,2.40
2022-09-25T18:41:21.336Z,2.30
2022-09-25T18:43:52.955Z,2.10
2022-09-25T18:46:24.423Z,2.20
2022-09-25T18:48:57.635Z,2.23
2022-09-25T18:51:29.022Z,2.00
2022-09-25T18:54:00.585Z,2.90
2022-09-25T18:56:34.413Z,2.43
2022-09-25T18:59:07.590Z,2.63
2022-09-25T19:01:39.612Z,2.87
2022-09-25T19:04:16.796Z,2.10
2022-09-25T19:06:48.585Z,2.00
2022-09-25T19:09:24.464Z,2.13
2022-09-25T19:11:55.810Z,1.85
2022-09-25T19:14:27.118Z,2.47
2022-09-25T19:16:58.468Z,1.90
2022-09-25T19:19:32.963Z,2.40
2022-09-25T19:22:04.926Z,2.27
2022-09-25T19:24:39.381Z,2.17
2022-09-25T19:27:11.990Z,2.47
2022-09-25T19:29:47.014Z,2.10
2022-09-25T19:32:18.399Z,2.00
2022-09-25T19:34:49.945Z,2.10
2022-09-25T19:37:24.002Z,2.50
2022-09-25T19:40:14.444Z,2.00
2022-09-25T19:42:46.796Z,2.30
2022-09-25T19:45:19.181Z,2.27
2022-09-25T19:47:50.651Z,2.00
2022-09-25T19:50:21.948Z,2.27
2022-09-25T19:52:54.713Z,2.10
2022-09-25T19:55:26.062Z,2.67
2022-09-25T19:57:57.684Z,2.17
2022-09-25T20:00:29.310Z,2.03
2022-09-25T20:03:00.755Z,2.43
2022-09-25T20:05:37.611Z,2.40
2022-09-25T20:08:09.506Z,1.93
2022-09-25T20:10:41.110Z,1.90
2022-09-25T20:13:13.513Z,1.60
2022-09-25T20:15:47.547Z,1.27
2022-09-25T20:18:18.962Z,1.47
2022-09-25T20:20:50.314Z,1.80
2022-09-25T20:23:21.638Z,1.63
2022-09-25T20:25:53.048Z,1.70
2022-09-25T20:28:25.253Z,2.10
2022-09-25T20:30:56.547Z,1.50
2022-09-25T20:33:32.468Z,1.27
2022-09-25T20:36:07.791Z,1.47
2022-09-25T20:38:39.163Z,1.20
2022-09-25T20:41:12.313Z,1.30
2022-09-25T20:43:46.910Z,1.50
2022-09-25T20:46:20.211Z,1.60
2022-09-25T20:48:53.300Z,1.53
2022-09-25T20:51:27.345Z,1.70
2022-09-25T20:54:07.638Z,1.80
2022-09-25T20:56:44.729Z,1.50
2022-09-25T20:59:16.732Z,2.13
2022-09-25T21:01:48.072Z,1.93
2022-09-25T21:04:19.612Z,2.90
2022-09-25T21:06:50.908Z,2.87
2022-09-25T21:09:25.471Z,2.90
2022-09-25T21:11:56.788Z,2.73
2022-09-25T21:14:28.549Z,3.00
2022-09-25T21:16:59.907Z,2.50
2022-09-25T21:19:31.721Z,2.57
2022-09-25T21:22:03.486Z,2.90
2022-09-25T21:24:35.813Z,2.43
2022-09-25T21:27:07.126Z,2.03
2022-09-25T21:29:38.444Z,2.00
2022-09-25T21:32:09.853Z,1.60
2022-09-25T21:34:41.099Z,1.47
2022-09-25T21:37:12.413Z,1.33
2022-09-25T21:39:43.742Z,1.40
2022-09-25T21:42:15.592Z,1.80
2022-09-25T21:44:47.334Z,1.40
2022-09-25T21:47:19.895Z,1.90
2022-09-25T21:49:51.336Z,1.80
2022-09-25T21:52:25.033Z,1.80
2022-09-25T21:54:56.289Z,1.80
2022-09-25T21:57:27.563Z,2.10
2022-09-25T21:59:58.830Z,2.13
2022-09-25T22:02:31.176Z,2.00
2022-09-25T22:05:02.493Z,1.80
2022-09-25T22:07:33.889Z,2.10
2022-09-25T22:10:05.822Z,2.20
2022-09-25T22:12:37.252Z,2.10
2022-09-25T22:15:09.454Z,1.67
2022-09-25T22:17:40.788Z,2.07
2022-09-25T22:20:12.226Z,1.97
2022-09-25T22:22:43.489Z,2.30
2022-09-25T22:25:14.903Z,2.13
2022-09-25T22:27:46.282Z,2.23
2022-09-25T22:30:17.525Z,2.10
2022-09-25T22:32:48.765Z,2.40
2022-09-25T22:35:20.010Z,1.97
2022-09-25T22:37:51.354Z,2.20
2022-09-25T22:40:22.651Z,2.10
2022-09-25T22:42:54.066Z,1.90
2022-09-25T22:45:25.393Z,2.30
2022-09-25T22:47:58.880Z,2.00
2022-09-25T22:50:30.127Z,2.37
2022-09-25T22:53:01.382Z,2.40
2022-09-25T22:55:32.785Z,3.10
2022-09-25T22:58:04.053Z,2.43
2022-09-25T23:00:35.308Z,2.43
2022-09-25T23:03:06.561Z,2.93
2022-09-25T23:05:39.315Z,2.50
2022-09-25T23:08:11.524Z,2.77
2022-09-25T23:11:06.044Z,3.40
2022-09-25T23:13:34.609Z,2.70
2022-09-25T23:16:08.105Z,2.20
2022-09-25T23:18:39.385Z,2.10
2022-09-25T23:21:10.679Z,2.73
2022-09-25T23:23:41.994Z,2.80
2022-09-25T23:26:13.235Z,2.50
2022-09-25T23:28:44.502Z,2.97
2022-09-25T23:31:17.356Z,2.63
2022-09-25T23:33:48.702Z,3.60
2022-09-25T23:36:21.962Z,2.50
2022-09-25T23:38:55.023Z,2.43
2022-09-25T23:41:29.999Z,2.83
2022-09-25T23:44:03.270Z,2.60
2022-09-25T23:46:37.860Z,2.40
2022-09-25T23:49:10.277Z,3.27
2022-09-25T23:51:41.634Z,2.90
2022-09-25T23:54:12.930Z,2.53
2022-09-25T23:56:44.306Z,2.60
2022-09-25T23:59:15.951Z,2.53
